createdAt,value
2022-12-17T00:02:33.083Z,99633.91
2022-12-17T00:05:54.298Z,99618.88
2022-12-17T00:09:17.321Z,99631.34
2022-12-17T00:12:39.740Z,99628.56
2022-12-17T00:16:00.907Z,99640.44
2022-12-17T00:19:22.140Z,99633.13
2022-12-17T00:22:43.387Z,99634.84
2022-12-17T00:26:09.879Z,99633.53
2022-12-17T00:29:32.736Z,99626.47
2022-12-17T00:33:05.305Z,99622.88
2022-12-17T00:36:27.227Z,99623.41
2022-12-17T00:39:48.470Z,99623.50
2022-12-17T00:43:18.382Z,99623.78
2022-12-17T00:46:40.060Z,99619.81
2022-12-17T00:50:03.822Z,99617.88
2022-12-17T00:53:24.961Z,99611.81
2022-12-17T00:56:46.121Z,99609.22
2022-12-17T01:00:07.267Z,99605.78
2022-12-17T01:03:46.083Z,99605.78
2022-12-17T01:07:07.391Z,99620.09
2022-12-17T01:10:28.503Z,99618.69
2022-12-17T01:13:49.641Z,99613.19
2022-12-17T01:17:10.968Z,99601.84
2022-12-17T01:20:33.858Z,99594.81
2022-12-17T01:23:55.029Z,99597.06
2022-12-17T01:27:17.907Z,99590.38
2022-12-17T01:30:39.190Z,99595.78
2022-12-17T01:34:00.208Z,99593.41
2022-12-17T01:37:22.877Z,99590.69
2022-12-17T01:40:43.840Z,99588.75
2022-12-17T01:44:04.996Z,99577.38
2022-12-17T01:47:28.564Z,99577.59
2022-12-17T01:50:52.972Z,99581.66
2022-12-17T01:54:15.518Z,99573.69
2022-12-17T01:57:41.908Z,99570.13
2022-12-17T02:01:04.249Z,99565.00
2022-12-17T02:04:26.189Z,99576.13
2022-12-17T02:08:04.304Z,99569.53
2022-12-17T02:11:37.490Z,99577.41
2022-12-17T02:15:03.536Z,99578.00
2022-12-17T02:18:30.274Z,99567.56
2022-12-17T02:21:55.807Z,99572.97
2022-12-17T02:25:23.281Z,99568.03
2022-12-17T02:28:46.669Z,99580.38
2022-12-17T02:32:10.656Z,99573.81
2022-12-17T02:35:35.987Z,99572.56
2022-12-17T02:38:57.670Z,99590.41
2022-12-17T02:42:20.398Z,99586.50
2022-12-17T02:45:43.725Z,99574.41
2022-12-17T02:49:05.301Z,99590.13
2022-12-17T02:52:33.281Z,99572.34
2022-12-17T02:55:55.844Z,99577.78
2022-12-17T02:59:17.098Z,99595.97
2022-12-17T03:02:40.275Z,99571.00
2022-12-17T03:06:02.129Z,99588.88
2022-12-17T03:09:23.321Z,99576.00
2022-12-17T03:12:44.462Z,99577.22
2022-12-17T03:16:05.622Z,99565.28
2022-12-17T03:19:29.576Z,99572.72
2022-12-17T03:22:50.728Z,99559.53
2022-12-17T03:26:11.931Z,99577.19
2022-12-17T03:29:33.157Z,99547.53
2022-12-17T03:32:54.119Z,99563.75
2022-12-17T03:36:16.856Z,99548.78
2022-12-17T03:39:37.997Z,99559.97
2022-12-17T03:42:59.293Z,99546.75
2022-12-17T03:46:21.106Z,99532.72
2022-12-17T03:49:42.304Z,99569.72
2022-12-17T03:53:05.022Z,99542.94
2022-12-17T03:56:26.078Z,99537.28
2022-12-17T03:59:46.937Z,99548.13
2022-12-17T04:03:07.957Z,99530.47
2022-12-17T04:06:29.032Z,99537.88
2022-12-17T04:09:51.857Z,99519.44
2022-12-17T04:13:12.912Z,99533.81
2022-12-17T04:16:34.052Z,99506.56
2022-12-17T04:19:55.155Z,99529.38
2022-12-17T04:23:16.180Z,99506.03
2022-12-17T04:26:38.550Z,99530.50
2022-12-17T04:29:59.375Z,99474.13
2022-12-17T04:33:20.266Z,99497.56
2022-12-17T04:36:41.525Z,99499.75
2022-12-17T04:40:02.627Z,99518.69
2022-12-17T04:43:29.759Z,99479.00
2022-12-17T04:46:50.480Z,99522.56
2022-12-17T04:50:11.809Z,99474.41
2022-12-17T04:53:33.014Z,99496.75
2022-12-17T04:56:54.331Z,99485.22
2022-12-17T05:00:16.983Z,99506.00
2022-12-17T05:03:38.191Z,99499.53
2022-12-17T05:06:59.463Z,99519.16
2022-12-17T05:10:20.240Z,99517.28
2022-12-17T05:13:41.471Z,99502.56
2022-12-17T05:17:03.702Z,99531.50
2022-12-17T05:20:25.082Z,99513.81
2022-12-17T05:23:48.092Z,99527.28
2022-12-17T05:27:08.902Z,99551.41
2022-12-17T05:30:30.746Z,99520.53
2022-12-17T05:33:53.092Z,99536.25
2022-12-17T05:37:14.328Z,99521.56
2022-12-17T05:40:50.071Z,99509.53
2022-12-17T05:44:11.075Z,99562.47
2022-12-17T05:47:31.809Z,99528.31
2022-12-17T05:50:54.227Z,99542.00
2022-12-17T05:54:15.550Z,99576.84
2022-12-17T05:57:36.618Z,99494.59
2022-12-17T06:01:12.477Z,99576.31
2022-12-17T06:04:33.455Z,99557.53
2022-12-17T06:07:55.761Z,99500.19
2022-12-17T06:11:17.729Z,99609.88
2022-12-17T06:14:38.597Z,99498.28
2022-12-17T06:17:59.681Z,99611.69
2022-12-17T06:21:20.587Z,99639.06
2022-12-17T06:24:46.146Z,99588.47
2022-12-17T06:28:07.628Z,99614.03
2022-12-17T06:31:28.788Z,99629.00
2022-12-17T06:34:50.125Z,99625.84
2022-12-17T06:38:17.281Z,99623.50
2022-12-17T06:41:51.541Z,99615.56
2022-12-17T06:45:13.217Z,99619.09
2022-12-17T06:48:34.068Z,99593.56
2022-12-17T06:51:55.260Z,99615.41
2022-12-17T06:55:16.327Z,99628.72
2022-12-17T06:58:39.027Z,99599.19
2022-12-17T07:02:00.063Z,99617.47
2022-12-17T07:05:21.338Z,99577.13
2022-12-17T07:08:42.358Z,99578.63
2022-12-17T07:12:03.689Z,99578.31
2022-12-17T07:15:26.860Z,99593.25
2022-12-17T07:18:47.975Z,99582.97
2022-12-17T07:22:09.092Z,99587.59
2022-12-17T07:25:30.097Z,99590.19
2022-12-17T07:28:51.162Z,99609.94
2022-12-17T07:32:13.650Z,99592.59
2022-12-17T07:35:34.791Z,99608.59
2022-12-17T07:38:55.887Z,99597.38
2022-12-17T07:42:16.848Z,99600.38
2022-12-17T07:45:38.168Z,99618.22
2022-12-17T07:49:06.417Z,99622.06
2022-12-17T07:52:27.191Z,99642.66
2022-12-17T07:55:48.364Z,99638.13
2022-12-17T07:59:09.141Z,99652.75
2022-12-17T08:02:30.452Z,99667.75
2022-12-17T08:05:53.248Z,99677.22
2022-12-17T08:09:14.382Z,99665.34
2022-12-17T08:12:35.401Z,99665.81
2022-12-17T08:15:56.498Z,99695.06
2022-12-17T08:19:17.237Z,99676.97
2022-12-17T08:22:39.173Z,99684.50
2022-12-17T08:26:00.089Z,99692.63
2022-12-17T08:29:21.221Z,99699.19
2022-12-17T08:32:42.381Z,99709.78
2022-12-17T08:36:10.851Z,99696.75
2022-12-17T08:39:33.152Z,99677.50
2022-12-17T08:42:54.327Z,99687.69
2022-12-17T08:46:15.197Z,99683.81
2022-12-17T08:49:36.331Z,99675.53
2022-12-17T08:52:57.348Z,99666.50
2022-12-17T08:56:19.982Z,99650.34
2022-12-17T08:59:40.949Z,99646.78
2022-12-17T09:03:02.127Z,99654.75
2022-12-17T09:06:23.951Z,99661.75
2022-12-17T09:09:45.122Z,99664.47
2022-12-17T09:13:07.808Z,99666.50
2022-12-17T09:16:28.966Z,99660.47
2022-12-17T09:19:50.101Z,99686.16
2022-12-17T09:23:11.062Z,99671.16
2022-12-17T09:26:32.223Z,99657.59
2022-12-17T09:29:55.102Z,99682.72
2022-12-17T09:33:16.021Z,99697.28
2022-12-17T09:36:37.301Z,99701.13
2022-12-17T09:39:58.128Z,99702.81
2022-12-17T09:43:24.998Z,99686.88
2022-12-17T09:46:55.208Z,99671.66
2022-12-17T09:50:17.370Z,99664.53
2022-12-17T09:53:43.011Z,99669.19
2022-12-17T09:57:04.137Z,99652.13
2022-12-17T10:00:33.166Z,99653.75
2022-12-17T10:04:05.320Z,99621.34
2022-12-17T10:07:30.438Z,99622.13
2022-12-17T10:10:52.680Z,99628.75
2022-12-17T10:14:14.368Z,99606.94
2022-12-17T10:17:37.967Z,99601.72
2022-12-17T10:21:05.279Z,99608.00
2022-12-17T10:24:28.528Z,99604.94
2022-12-17T10:27:46.147Z,99622.25
2022-12-17T10:31:07.349Z,99603.41
2022-12-17T10:34:35.099Z,99605.16
2022-12-17T10:37:57.428Z,99598.56
2022-12-17T10:41:18.557Z,99601.88
2022-12-17T10:44:41.523Z,99600.69
2022-12-17T10:48:03.069Z,99603.16
2022-12-17T10:51:33.565Z,99608.41
2022-12-17T10:54:56.437Z,99587.94
2022-12-17T10:58:22.201Z,99596.69
2022-12-17T11:01:45.413Z,99591.91
2022-12-17T11:05:11.239Z,99577.13
2022-12-17T11:08:33.921Z,99556.88
2022-12-17T11:11:57.108Z,99582.94
2022-12-17T11:15:27.791Z,99577.94
2022-12-17T11:18:55.771Z,99601.31
2022-12-17T11:22:22.217Z,99598.66
2022-12-17T11:25:52.763Z,99573.13
2022-12-17T11:29:17.358Z,99586.63
2022-12-17T11:33:04.202Z,99612.31
2022-12-17T11:36:38.441Z,99641.66
2022-12-17T11:40:07.522Z,99662.81
2022-12-17T11:43:38.328Z,99651.63
2022-12-17T11:47:06.680Z,99646.81
2022-12-17T11:50:39.497Z,99675.34
2022-12-17T11:54:15.792Z,99687.72
2022-12-17T11:57:43.617Z,99707.25
2022-12-17T12:01:15.881Z,99720.31
2022-12-17T12:04:56.351Z,99732.84
2022-12-17T12:08:28.546Z,99730.09
2022-12-17T12:11:57.799Z,99726.19
2022-12-17T12:15:30.121Z,99746.13
2022-12-17T12:19:03.327Z,99727.56
2022-12-17T12:22:30.971Z,99713.94
2022-12-17T12:25:58.041Z,99708.31
2022-12-17T12:29:28.187Z,99691.91
2022-12-17T12:33:09.631Z,99697.13
2022-12-17T12:36:34.780Z,99675.59
2022-12-17T12:40:11.155Z,99666.75
2022-12-17T12:43:39.761Z,99669.06
2022-12-17T12:47:06.727Z,99665.28
2022-12-17T12:50:38.018Z,99650.59
2022-12-17T12:53:59.264Z,99644.44
2022-12-17T12:57:21.970Z,99644.06
2022-12-17T13:00:50.250Z,99635.97
2022-12-17T13:04:14.437Z,99656.03
2022-12-17T13:07:26.706Z,99648.09
2022-12-17T13:10:32.595Z,99637.75
2022-12-17T13:13:56.134Z,99637.94
2022-12-17T13:17:05.988Z,99652.00
2022-12-17T13:20:28.648Z,99642.06
2022-12-17T13:23:36.698Z,99635.25
2022-12-17T13:26:47.148Z,99638.03
2022-12-17T13:29:52.260Z,99650.84
2022-12-17T13:33:08.862Z,99651.84
2022-12-17T13:36:21.787Z,99658.38
2022-12-17T13:39:38.148Z,99667.88
2022-12-17T13:42:42.466Z,99664.25
2022-12-17T13:45:48.285Z,99666.22
2022-12-17T13:48:56.551Z,99673.53
2022-12-17T13:52:11.163Z,99669.25
2022-12-17T13:55:19.978Z,99669.06
2022-12-17T13:58:26.221Z,99669.06
2022-12-17T14:01:32.468Z,99672.78
2022-12-17T14:04:36.302Z,99678.84
2022-12-17T14:07:42.181Z,99676.22
2022-12-17T14:10:53.058Z,99675.72
2022-12-17T14:13:57.390Z,99678.66
2022-12-17T14:17:03.117Z,99679.06
2022-12-17T14:20:14.938Z,99687.47
2022-12-17T14:23:28.401Z,99702.16
2022-12-17T14:26:32.110Z,99710.38
2022-12-17T14:29:35.962Z,99702.94
2022-12-17T14:32:45.163Z,99684.31
2022-12-17T14:35:54.709Z,99686.88
2022-12-17T14:39:02.572Z,99696.22
2022-12-17T14:42:29.849Z,99695.84
2022-12-17T14:45:53.748Z,99706.41
2022-12-17T14:49:04.170Z,99708.31
2022-12-17T14:52:14.652Z,99703.16
2022-12-17T14:55:36.927Z,99737.91
2022-12-17T14:58:47.148Z,99743.97
2022-12-17T15:01:55.740Z,99743.81
2022-12-17T15:05:04.078Z,99754.28
2022-12-17T15:08:07.832Z,99769.44
2022-12-17T15:11:13.882Z,99781.25
2022-12-17T15:14:17.608Z,99781.34
2022-12-17T15:17:21.429Z,99777.78
2022-12-17T15:20:26.791Z,99774.41
2022-12-17T15:23:31.687Z,99794.31
2022-12-17T15:26:35.410Z,99824.06
2022-12-17T15:29:39.041Z,99847.00
2022-12-17T15:32:43.167Z,99861.81
2022-12-17T15:35:48.484Z,99868.91
2022-12-17T15:38:52.760Z,99863.97
2022-12-17T15:42:13.921Z,99874.03
2022-12-17T15:45:18.248Z,99867.13
2022-12-17T15:48:24.037Z,99859.94
2022-12-17T15:51:29.223Z,99833.38
2022-12-17T15:54:33.023Z,99821.72
2022-12-17T15:57:36.881Z,99790.63
2022-12-17T16:00:40.728Z,99755.19
2022-12-17T16:03:44.718Z,99733.13
2022-12-17T16:06:49.980Z,99704.88
2022-12-17T16:09:53.922Z,99722.66
2022-12-17T16:12:57.741Z,99775.59
2022-12-17T16:16:04.168Z,99780.38
2022-12-17T16:19:08.421Z,99784.53
2022-12-17T16:22:13.661Z,99780.72
2022-12-17T16:25:17.455Z,99776.31
2022-12-17T16:28:21.412Z,99765.69
2022-12-17T16:31:25.397Z,99774.16
2022-12-17T16:34:29.302Z,99762.56
2022-12-17T16:37:34.592Z,99760.16
2022-12-17T16:40:38.445Z,99772.84
2022-12-17T16:43:42.256Z,99782.25
2022-12-17T16:46:46.728Z,99781.13
2022-12-17T16:49:51.852Z,99779.69
2022-12-17T16:52:57.165Z,99798.88
2022-12-17T16:56:00.935Z,99810.97
2022-12-17T16:59:08.112Z,99806.59
2022-12-17T17:02:14.436Z,99808.84
2022-12-17T17:05:18.344Z,99812.91
2022-12-17T17:08:23.541Z,99813.34
2022-12-17T17:11:27.605Z,99816.13
2022-12-17T17:14:31.531Z,99822.72
2022-12-17T17:17:55.730Z,99822.31
2022-12-17T17:21:14.882Z,99830.25
2022-12-17T17:24:23.212Z,99824.63
2022-12-17T17:27:27.141Z,99832.50
2022-12-17T17:30:31.042Z,99824.34
2022-12-17T17:33:38.839Z,99844.59
2022-12-17T17:36:43.609Z,99847.56
2022-12-17T17:39:48.968Z,99847.72
2022-12-17T17:42:52.981Z,99847.50
2022-12-17T17:45:57.271Z,99845.19
2022-12-17T17:49:02.667Z,99850.13
2022-12-17T17:52:09.948Z,99849.91
2022-12-17T17:55:15.871Z,99833.25
2022-12-17T17:58:19.734Z,99849.28
2022-12-17T18:01:25.698Z,99864.44
2022-12-17T18:04:29.758Z,99862.91
2022-12-17T18:07:34.917Z,99858.88
2022-12-17T18:10:40.176Z,99863.44
2022-12-17T18:13:58.405Z,99863.38
2022-12-17T18:17:02.251Z,99875.19
2022-12-17T18:20:07.087Z,99879.72
2022-12-17T18:23:11.175Z,99871.50
2022-12-17T18:26:18.417Z,99862.00
2022-12-17T18:29:24.216Z,99881.53
2022-12-17T18:32:28.400Z,99891.28
2022-12-17T18:35:32.294Z,99886.31
2022-12-17T18:38:36.398Z,99889.72
2022-12-17T18:41:59.985Z,99897.41
2022-12-17T18:45:04.136Z,99904.00
2022-12-17T18:48:08.492Z,99923.00
2022-12-17T18:51:13.502Z,99928.59
2022-12-17T18:54:19.542Z,99924.09
2022-12-17T18:57:24.992Z,99915.38
2022-12-17T19:00:28.833Z,99915.69
2022-12-17T19:03:32.820Z,99910.31
2022-12-17T19:06:38.672Z,99906.16
2022-12-17T19:09:42.743Z,99897.47
2022-12-17T19:12:47.830Z,99898.72
2022-12-17T19:15:51.638Z,99916.72
2022-12-17T19:18:56.959Z,99922.91
2022-12-17T19:22:02.303Z,99919.50
2022-12-17T19:25:06.835Z,99946.31
2022-12-17T19:28:12.120Z,99970.50
2022-12-17T19:31:17.093Z,99978.91
2022-12-17T19:34:21.435Z,99982.50
2022-12-17T19:37:25.256Z,99982.78
2022-12-17T19:40:29.180Z,99991.41
2022-12-17T19:43:34.552Z,100000.09
2022-12-17T19:46:39.246Z,99994.34
2022-12-17T19:49:44.069Z,99989.78
2022-12-17T19:52:47.955Z,99989.63
2022-12-17T19:55:52.329Z,100007.28
2022-12-17T19:59:01.097Z,100025.25
2022-12-17T20:02:05.346Z,100040.53
2022-12-17T20:05:10.139Z,100044.09
2022-12-17T20:08:17.042Z,100045.06
2022-12-17T20:11:36.883Z,100028.31
2022-12-17T20:14:42.029Z,99997.09
2022-12-17T20:17:45.976Z,99992.69
2022-12-17T20:20:49.776Z,99998.31
2022-12-17T20:23:53.815Z,99955.00
2022-12-17T20:26:57.817Z,99900.84
2022-12-17T20:30:03.090Z,99885.03
2022-12-17T20:33:06.890Z,99937.81
2022-12-17T20:36:13.252Z,100013.66
2022-12-17T20:39:20.717Z,100023.47
2022-12-17T20:42:27.329Z,100021.97
2022-12-17T20:45:32.895Z,100018.81
2022-12-17T20:48:37.457Z,100012.25
2022-12-17T20:51:41.737Z,100028.44
2022-12-17T20:54:45.482Z,100030.50
2022-12-17T20:57:49.312Z,100028.31
2022-12-17T21:00:56.739Z,100024.84
2022-12-17T21:04:01.216Z,100021.72
2022-12-17T21:07:05.148Z,100029.00
2022-12-17T21:10:09.387Z,100041.94
2022-12-17T21:13:31.456Z,100060.66
2022-12-17T21:16:38.005Z,100056.53
2022-12-17T21:19:41.889Z,100060.91
2022-12-17T21:22:45.717Z,100062.44
2022-12-17T21:25:49.669Z,100067.50
2022-12-17T21:28:56.695Z,100082.25
2022-12-17T21:32:03.266Z,100070.81
2022-12-17T21:35:07.896Z,100074.41
2022-12-17T21:38:11.829Z,100073.19
2022-12-17T21:41:17.841Z,100067.78
2022-12-17T21:44:21.570Z,100071.09
2022-12-17T21:47:27.296Z,100078.25
2022-12-17T21:50:31.006Z,100084.88
2022-12-17T21:53:35.493Z,100074.00
2022-12-17T21:56:39.475Z,100060.22
2022-12-17T21:59:43.489Z,100068.63
2022-12-17T22:02:51.907Z,100069.84
2022-12-17T22:05:55.836Z,100067.25
2022-12-17T22:09:01.492Z,100072.63
2022-12-17T22:12:24.769Z,100080.44
2022-12-17T22:15:31.991Z,100071.09
2022-12-17T22:18:45.610Z,100070.41
2022-12-17T22:21:49.877Z,100074.38
2022-12-17T22:24:53.795Z,100082.38
2022-12-17T22:27:57.885Z,100089.53
2022-12-17T22:31:23.255Z,100096.66
2022-12-17T22:34:51.495Z,100098.72
2022-12-17T22:39:29.538Z,100109.34
2022-12-17T22:44:36.592Z,100103.84
2022-12-17T22:45:04.124Z,100105.50
2022-12-17T22:48:12.910Z,100111.69
2022-12-17T22:51:22.186Z,100113.75
2022-12-17T22:54:30.659Z,100119.53
2022-12-17T22:57:38.210Z,100121.75
2022-12-17T23:00:42.445Z,100132.19
2022-12-17T23:03:46.413Z,100138.91
2022-12-17T23:06:51.797Z,100132.19
2022-12-17T23:09:56.014Z,100125.03
2022-12-17T23:12:59.777Z,100126.25
2022-12-17T23:16:04.047Z,100117.59
2022-12-17T23:19:08.929Z,100108.13
2022-12-17T23:22:20.438Z,100094.41
2022-12-17T23:25:26.858Z,100105.97
2022-12-17T23:28:30.886Z,100133.03
2022-12-17T23:31:38.066Z,100155.75
2022-12-17T23:34:42.095Z,100156.44
2022-12-17T23:37:47.345Z,100148.34
2022-12-17T23:40:51.158Z,100133.75
2022-12-17T23:43:56.476Z,100151.06
2022-12-17T23:47:00.312Z,100156.16
2022-12-17T23:50:04.288Z,100164.56
2022-12-17T23:53:09.578Z,100171.06
2022-12-17T23:56:17.024Z,100182.00
2022-12-17T23:59:20.943Z,100171.31
